createdAt,value
2017-10-02T00:18:38.429Z,87.82
2017-10-02T00:39:17.942Z,87.85
2017-10-02T00:59:53.578Z,87.76
2017-10-02T01:20:40.293Z,87.44
2017-10-02T01:23:13.763Z,87.57
2017-10-02T01:25:55.459Z,87.45
2017-10-02T01:28:27.000Z,87.30
2017-10-02T01:30:55.396Z,87.16
2017-10-02T01:33:24.683Z,87.86
2017-10-02T01:35:53.099Z,87.53
2017-10-02T01:38:23.588Z,87.29
2017-10-02T01:40:55.357Z,87.75
2017-10-02T01:43:24.659Z,87.47
2017-10-02T01:45:53.991Z,87.75
2017-10-02T01:48:22.359Z,88.07
2017-10-02T01:51:01.647Z,88.07
2017-10-02T01:53:32.875Z,88.19
2017-10-02T01:56:01.432Z,88.21
2017-10-02T01:58:29.830Z,87.89
2017-10-02T02:00:58.460Z,87.70
2017-10-02T02:03:26.835Z,87.69
2017-10-02T02:05:55.187Z,88.07
2017-10-02T02:08:23.541Z,88.09
2017-10-02T02:10:54.188Z,87.84
2017-10-02T02:13:22.737Z,88.21
2017-10-02T02:15:52.077Z,88.37
2017-10-02T02:18:21.641Z,88.09
2017-10-02T02:20:51.640Z,88.41
2017-10-02T02:23:21.154Z,88.30
2017-10-02T02:25:49.813Z,88.57
2017-10-02T02:28:18.227Z,88.52
2017-10-02T02:30:47.315Z,88.43
2017-10-02T02:33:15.653Z,88.09
2017-10-02T02:35:43.985Z,87.97
2017-10-02T02:38:13.295Z,88.29
2017-10-02T02:40:42.655Z,88.05
2017-10-02T02:43:10.993Z,88.64
2017-10-02T02:45:41.520Z,88.69
2017-10-02T02:48:10.850Z,88.29
2017-10-02T02:50:39.184Z,88.55
2017-10-02T02:53:08.490Z,88.62
2017-10-02T02:55:37.809Z,88.57
2017-10-02T02:58:07.078Z,88.76
2017-10-02T03:00:35.789Z,89.09
2017-10-02T03:03:05.106Z,89.29
2017-10-02T03:05:34.722Z,89.40
2017-10-02T03:08:03.091Z,89.11
2017-10-02T03:10:33.600Z,88.62
2017-10-02T03:13:02.920Z,88.47
2017-10-02T03:15:32.195Z,88.82
2017-10-02T03:18:00.596Z,88.63
2017-10-02T03:20:29.899Z,89.12
2017-10-02T03:22:59.182Z,89.02
2017-10-02T03:25:28.491Z,89.01
2017-10-02T03:27:56.864Z,88.78
2017-10-02T03:30:26.779Z,88.71
2017-10-02T03:32:56.096Z,88.32
2017-10-02T03:35:24.492Z,88.17
2017-10-02T03:37:52.856Z,87.85
2017-10-02T03:40:22.135Z,88.05
2017-10-02T03:42:51.264Z,88.30
2017-10-02T03:45:24.730Z,88.58
2017-10-02T03:47:55.535Z,89.02
2017-10-02T03:50:23.972Z,88.72
2017-10-02T03:52:53.272Z,88.56
2017-10-02T03:55:22.615Z,88.71
2017-10-02T03:57:50.931Z,89.65
2017-10-02T04:00:19.432Z,90.19
2017-10-02T04:02:52.915Z,89.87
2017-10-02T04:05:21.334Z,89.80
2017-10-02T04:07:51.826Z,89.83
2017-10-02T04:10:20.241Z,90.49
2017-10-02T04:12:50.755Z,90.49
2017-10-02T04:15:20.049Z,90.42
2017-10-02T04:17:49.684Z,90.10
2017-10-02T04:20:21.412Z,89.87
2017-10-02T04:22:50.054Z,90.01
2017-10-02T04:25:18.474Z,90.30
2017-10-02T04:27:46.905Z,90.27
2017-10-02T04:30:15.264Z,90.38
2017-10-02T04:32:45.780Z,90.51
2017-10-02T04:35:14.927Z,90.70
2017-10-02T04:37:43.264Z,90.50
2017-10-02T04:40:12.389Z,90.58
2017-10-02T04:42:41.035Z,90.50
2017-10-02T04:45:10.126Z,90.13
2017-10-02T04:47:38.480Z,90.51
2017-10-02T04:50:06.796Z,91.12
2017-10-02T04:52:35.144Z,91.20
2017-10-02T04:55:03.476Z,91.26
2017-10-02T04:57:31.887Z,91.08
2017-10-02T05:00:00.281Z,90.90
2017-10-02T05:02:28.675Z,91.18
2017-10-02T05:04:57.024Z,91.16
2017-10-02T05:07:25.347Z,91.34
2017-10-02T05:09:53.696Z,91.39
2017-10-02T05:12:22.017Z,91.37
2017-10-02T05:14:51.764Z,91.34
2017-10-02T05:17:20.567Z,90.91
2017-10-02T05:19:49.335Z,90.92
2017-10-02T05:22:17.979Z,91.40
2017-10-02T05:24:47.208Z,91.35
2017-10-02T05:27:16.085Z,91.26
2017-10-02T05:29:44.671Z,91.58
2017-10-02T05:32:13.316Z,91.59
2017-10-02T05:34:42.942Z,91.33
2017-10-02T05:37:11.412Z,90.57
2017-10-02T05:39:40.114Z,90.11
2017-10-02T05:42:08.631Z,90.01
2017-10-02T05:44:37.083Z,90.19
2017-10-02T05:47:06.199Z,90.62
2017-10-02T05:49:35.566Z,90.53
2017-10-02T05:52:03.901Z,90.44
2017-10-02T05:54:32.422Z,90.38
2017-10-02T05:57:00.922Z,90.49
2017-10-02T05:59:29.590Z,90.71
2017-10-02T06:01:58.215Z,90.75
2017-10-02T06:04:26.822Z,90.81
2017-10-02T06:06:55.391Z,90.81
2017-10-02T06:09:23.921Z,91.00
2017-10-02T06:11:52.655Z,91.17
2017-10-02T06:14:22.464Z,90.71
2017-10-02T06:16:51.120Z,90.92
2017-10-02T06:19:19.676Z,91.05
2017-10-02T06:21:48.115Z,90.98
2017-10-02T06:24:16.660Z,91.03
2017-10-02T06:26:45.162Z,91.18
2017-10-02T06:29:13.622Z,91.11
2017-10-02T06:31:42.352Z,91.33
2017-10-02T06:34:11.013Z,91.71
2017-10-02T06:36:39.581Z,91.77
2017-10-02T06:39:07.974Z,91.45
2017-10-02T06:41:36.559Z,91.43
2017-10-02T06:44:05.531Z,91.45
2017-10-02T06:46:33.842Z,91.50
2017-10-02T06:49:02.176Z,91.38
2017-10-02T06:51:30.511Z,91.63
2017-10-02T06:53:58.893Z,91.32
2017-10-02T06:56:27.231Z,91.20
2017-10-02T06:58:55.998Z,91.14
2017-10-02T07:01:24.326Z,91.19
2017-10-02T07:03:52.648Z,91.65
2017-10-02T07:06:20.979Z,91.57
2017-10-02T07:08:49.309Z,91.32
2017-10-02T07:11:17.654Z,91.43
2017-10-02T07:13:45.988Z,91.24
2017-10-02T07:16:14.341Z,91.25
2017-10-02T07:18:42.683Z,91.47
2017-10-02T07:21:11.066Z,91.51
2017-10-02T07:23:39.425Z,91.59
2017-10-02T07:26:07.756Z,91.30
2017-10-02T07:28:36.881Z,91.42
2017-10-02T07:31:05.202Z,91.50
2017-10-02T07:33:33.585Z,91.61
2017-10-02T07:36:01.916Z,91.69
2017-10-02T07:38:30.254Z,91.66
2017-10-02T07:40:59.381Z,91.40
2017-10-02T07:43:27.717Z,91.35
2017-10-02T07:45:56.070Z,91.34
2017-10-02T07:48:24.396Z,91.65
2017-10-02T07:50:53.524Z,91.61
2017-10-02T07:53:21.910Z,91.56
2017-10-02T07:55:50.263Z,91.66
2017-10-02T07:58:18.615Z,92.07
2017-10-02T08:00:46.960Z,91.77
2017-10-02T08:03:15.309Z,91.76
2017-10-02T08:05:43.627Z,91.68
2017-10-02T08:08:11.978Z,91.69
2017-10-02T08:10:40.300Z,91.75
2017-10-02T08:13:08.629Z,91.39
2017-10-02T08:15:36.977Z,91.74
2017-10-02T08:18:06.063Z,91.84
2017-10-02T08:20:34.402Z,91.67
2017-10-02T08:23:02.731Z,91.79
2017-10-02T08:25:31.082Z,91.52
2017-10-02T08:27:59.394Z,91.49
2017-10-02T08:30:28.489Z,91.63
2017-10-02T08:32:57.563Z,91.83
2017-10-02T08:35:25.893Z,91.87
2017-10-02T08:37:54.235Z,91.69
2017-10-02T08:40:22.564Z,91.56
2017-10-02T08:42:50.916Z,91.59
2017-10-02T08:45:19.237Z,91.33
2017-10-02T08:47:47.554Z,91.36
2017-10-02T08:50:15.904Z,91.32
2017-10-02T08:52:44.224Z,91.85
2017-10-02T08:55:12.561Z,91.30
2017-10-02T08:57:40.874Z,91.61
2017-10-02T09:00:10.008Z,91.78
2017-10-02T09:02:38.365Z,91.20
2017-10-02T09:05:06.693Z,91.12
2017-10-02T09:07:35.043Z,91.60
2017-10-02T09:10:03.389Z,91.51
2017-10-02T09:12:32.511Z,91.63
2017-10-02T09:15:00.823Z,91.70
2017-10-02T09:17:29.174Z,91.68
2017-10-02T09:19:57.507Z,91.67
2017-10-02T09:22:25.839Z,91.40
2017-10-02T09:24:54.301Z,91.50
2017-10-02T09:27:22.673Z,91.58
2017-10-02T09:29:51.789Z,91.43
2017-10-02T09:32:20.101Z,91.30
2017-10-02T09:34:48.761Z,91.92
2017-10-02T09:37:17.096Z,91.58
2017-10-02T09:39:46.193Z,91.67
2017-10-02T09:42:14.532Z,91.69
2017-10-02T09:44:42.877Z,91.57
2017-10-02T09:47:11.227Z,91.41
2017-10-02T09:49:39.560Z,91.56
2017-10-02T09:52:08.242Z,91.52
2017-10-02T09:54:36.554Z,91.52
2017-10-02T09:57:04.874Z,91.51
2017-10-02T09:59:33.214Z,91.58
2017-10-02T10:02:01.530Z,91.56
2017-10-02T10:04:30.648Z,91.91
2017-10-02T10:06:58.968Z,91.99
2017-10-02T10:09:27.350Z,91.87
2017-10-02T10:11:55.671Z,92.28
2017-10-02T10:14:24.032Z,92.35
2017-10-02T10:16:53.131Z,92.22
2017-10-02T10:19:22.245Z,91.81
2017-10-02T10:21:51.361Z,91.84
2017-10-02T10:24:19.695Z,92.04
2017-10-02T10:26:48.052Z,91.94
2017-10-02T10:29:16.377Z,91.61
2017-10-02T10:31:44.698Z,91.72
2017-10-02T10:34:13.818Z,91.20
2017-10-02T10:36:42.176Z,91.04
2017-10-02T10:39:10.510Z,90.72
2017-10-02T10:41:38.840Z,90.64
2017-10-02T10:44:08.015Z,90.96
2017-10-02T10:46:36.331Z,90.29
2017-10-02T10:49:04.667Z,90.70
2017-10-02T10:51:33.022Z,90.85
2017-10-02T10:54:01.333Z,90.29
2017-10-02T10:56:29.668Z,90.98
2017-10-02T10:58:57.998Z,90.19
2017-10-02T11:01:26.373Z,90.38
2017-10-02T11:03:54.708Z,90.08
2017-10-02T11:06:23.791Z,90.15
2017-10-02T11:08:52.128Z,89.99
2017-10-02T11:11:20.458Z,90.33
2017-10-02T11:13:49.572Z,90.18
2017-10-02T11:16:17.895Z,90.14
2017-10-02T11:18:46.246Z,89.91
2017-10-02T11:21:14.569Z,90.30
2017-10-02T11:23:42.912Z,89.91
2017-10-02T11:26:11.731Z,89.76
2017-10-02T11:28:40.043Z,89.69
2017-10-02T11:31:09.234Z,90.39
2017-10-02T11:33:37.572Z,90.34
2017-10-02T11:36:05.899Z,90.47
2017-10-02T11:38:34.224Z,90.56
2017-10-02T11:41:02.590Z,90.70
2017-10-02T11:43:30.936Z,90.61
2017-10-02T11:46:00.058Z,90.52
2017-10-02T11:48:28.402Z,90.37
2017-10-02T11:50:56.748Z,90.52
2017-10-02T11:53:25.095Z,90.92
2017-10-02T11:55:53.429Z,90.01
2017-10-02T11:58:21.764Z,90.56
2017-10-02T12:00:50.506Z,90.60
2017-10-02T12:03:18.868Z,90.18
2017-10-02T12:05:47.278Z,90.31
2017-10-02T12:08:16.366Z,90.62
2017-10-02T12:10:44.704Z,90.96
2017-10-02T12:13:13.123Z,90.57
2017-10-02T12:15:41.471Z,90.30
2017-10-02T12:18:09.795Z,90.14
2017-10-02T12:20:38.907Z,90.06
2017-10-02T12:23:07.272Z,89.92
2017-10-02T12:25:36.366Z,90.48
2017-10-02T12:28:04.698Z,90.12
2017-10-02T12:30:33.786Z,89.97
2017-10-02T12:33:02.122Z,89.97
2017-10-02T12:35:30.470Z,89.88
2017-10-02T12:37:59.630Z,90.08
2017-10-02T12:40:27.987Z,90.12
2017-10-02T12:42:57.073Z,89.79
2017-10-02T12:45:26.174Z,89.65
2017-10-02T12:47:54.521Z,89.97
2017-10-02T12:50:22.865Z,90.37
2017-10-02T12:52:51.178Z,89.63
2017-10-02T12:55:19.528Z,89.65
2017-10-02T12:57:47.882Z,88.47
2017-10-02T13:00:16.974Z,89.00
2017-10-02T13:02:45.298Z,87.84
2017-10-02T13:05:13.623Z,87.90
2017-10-02T13:07:42.734Z,87.33
2017-10-02T13:10:11.068Z,86.82
2017-10-02T13:12:39.388Z,86.62
2017-10-02T13:15:08.504Z,86.74
2017-10-02T13:17:36.842Z,86.22
2017-10-02T13:20:06.106Z,85.62
2017-10-02T13:22:34.424Z,86.05
2017-10-02T13:25:03.536Z,86.09
2017-10-02T13:27:31.869Z,85.19
2017-10-02T13:30:00.213Z,84.89
2017-10-02T13:32:28.568Z,84.59
2017-10-02T13:34:57.667Z,84.53
2017-10-02T13:37:26.002Z,84.16
2017-10-02T13:39:54.323Z,84.88
2017-10-02T13:42:23.431Z,84.79
2017-10-02T13:44:51.769Z,84.48
2017-10-02T13:47:20.099Z,84.54
2017-10-02T13:49:48.436Z,85.05
2017-10-02T13:52:16.750Z,85.47
2017-10-02T13:54:45.103Z,85.79
2017-10-02T13:57:13.429Z,85.42
2017-10-02T13:59:41.807Z,85.33
2017-10-02T14:02:10.169Z,86.10
2017-10-02T14:04:38.513Z,85.42
2017-10-02T14:07:06.849Z,85.78
2017-10-02T14:09:35.168Z,85.26
2017-10-02T14:12:03.909Z,85.28
2017-10-02T14:14:32.231Z,84.44
2017-10-02T14:17:00.561Z,84.53
2017-10-02T14:19:28.896Z,84.48
2017-10-02T14:21:57.231Z,84.37
2017-10-02T14:24:25.577Z,84.48
2017-10-02T14:26:53.903Z,84.55
2017-10-02T14:29:22.518Z,85.03
2017-10-02T14:31:50.973Z,85.05
2017-10-02T14:34:19.290Z,84.96
2017-10-02T14:36:47.723Z,85.00
2017-10-02T14:39:16.058Z,84.94
2017-10-02T14:41:45.401Z,85.46
2017-10-02T14:44:14.660Z,85.37
2017-10-02T14:46:44.389Z,85.73
2017-10-02T14:49:13.889Z,85.36
2017-10-02T14:51:43.182Z,85.03
2017-10-02T14:54:12.516Z,85.44
2017-10-02T14:56:40.898Z,85.80
2017-10-02T14:59:09.304Z,85.78
2017-10-02T15:01:39.433Z,85.56
2017-10-02T15:04:07.872Z,84.49
2017-10-02T15:06:37.803Z,84.39
2017-10-02T15:09:07.522Z,84.00
2017-10-02T15:11:37.942Z,84.36
2017-10-02T15:14:07.627Z,84.50
2017-10-02T15:16:38.717Z,84.71
2017-10-02T15:19:07.834Z,84.22
2017-10-02T15:21:37.279Z,84.73
2017-10-02T15:24:07.130Z,85.46
2017-10-02T15:26:37.036Z,85.24
2017-10-02T15:29:06.539Z,84.46
2017-10-02T15:31:40.284Z,84.24
2017-10-02T15:34:09.969Z,84.08
2017-10-02T15:36:41.233Z,83.61
2017-10-02T15:39:13.430Z,83.66
2017-10-02T15:41:43.756Z,82.65
2017-10-02T15:44:13.319Z,83.50
2017-10-02T15:46:50.749Z,83.41
2017-10-02T15:49:28.694Z,82.57
2017-10-02T15:52:06.324Z,82.45
2017-10-02T15:54:40.720Z,83.13
2017-10-02T15:57:18.959Z,83.18
2017-10-02T15:59:57.342Z,82.97
2017-10-02T16:02:30.716Z,82.96
2017-10-02T16:05:09.182Z,82.63
2017-10-02T16:07:42.682Z,82.82
2017-10-02T16:10:20.543Z,82.69
2017-10-02T16:12:51.364Z,81.62
2017-10-02T16:15:25.576Z,81.69
2017-10-02T16:18:02.181Z,81.35
2017-10-02T16:20:39.782Z,79.88
2017-10-02T16:23:18.875Z,78.09
2017-10-02T16:25:49.050Z,78.65
2017-10-02T16:28:29.545Z,79.15
2017-10-02T16:30:58.611Z,76.79
2017-10-02T16:33:27.032Z,77.39
2017-10-02T16:35:56.346Z,77.75
2017-10-02T16:38:25.673Z,77.34
2017-10-02T16:40:54.961Z,76.36
2017-10-02T16:43:25.504Z,77.37
2017-10-02T16:45:56.023Z,75.76
2017-10-02T16:48:25.387Z,76.31
2017-10-02T16:50:55.857Z,77.01
2017-10-02T16:53:24.226Z,76.43
2017-10-02T16:55:53.539Z,76.90
2017-10-02T16:58:21.947Z,77.06
2017-10-02T17:00:50.353Z,77.94
2017-10-02T17:03:18.678Z,78.01
2017-10-02T17:05:48.042Z,77.49
2017-10-02T17:08:17.575Z,77.82
2017-10-02T17:10:48.180Z,77.36
2017-10-02T17:13:17.715Z,77.79
2017-10-02T17:15:52.440Z,77.77
2017-10-02T17:18:26.139Z,78.49
2017-10-02T17:20:55.729Z,78.55
2017-10-02T17:23:24.137Z,77.63
2017-10-02T17:25:52.513Z,78.09
2017-10-02T17:28:21.831Z,78.38
2017-10-02T17:30:50.212Z,78.72
2017-10-02T17:33:18.556Z,78.83
2017-10-02T17:35:46.950Z,79.30
2017-10-02T17:38:16.066Z,79.24
2017-10-02T17:40:44.446Z,79.33
2017-10-02T17:43:13.565Z,79.78
2017-10-02T17:45:41.888Z,80.05
2017-10-02T17:48:10.500Z,79.99
2017-10-02T17:50:39.650Z,80.26
2017-10-02T17:53:07.990Z,80.29
2017-10-02T17:55:36.359Z,80.66
2017-10-02T17:58:05.453Z,80.86
2017-10-02T18:00:34.575Z,81.08
2017-10-02T18:03:02.911Z,81.58
2017-10-02T18:05:31.265Z,81.60
2017-10-02T18:07:59.620Z,81.77
2017-10-02T18:10:27.981Z,81.70
2017-10-02T18:12:56.296Z,81.77
2017-10-02T18:15:24.625Z,81.56
2017-10-02T18:17:53.718Z,81.76
2017-10-02T18:20:22.803Z,81.82
2017-10-02T18:22:51.929Z,82.14
2017-10-02T18:25:20.256Z,82.39
2017-10-02T18:27:48.638Z,82.56
2017-10-02T18:30:16.964Z,82.67
2017-10-02T18:32:45.298Z,82.57
2017-10-02T18:35:13.648Z,83.11
2017-10-02T18:37:42.018Z,83.40
2017-10-02T18:40:10.354Z,83.45
2017-10-02T18:42:38.719Z,83.52
2017-10-02T18:45:07.060Z,83.72
2017-10-02T18:47:35.398Z,83.92
2017-10-02T18:50:04.521Z,84.00
2017-10-02T18:52:32.865Z,84.18
2017-10-02T18:55:01.247Z,84.40
2017-10-02T18:57:29.606Z,84.25
2017-10-02T18:59:57.977Z,84.20
2017-10-02T19:02:26.343Z,84.86
2017-10-02T19:04:54.688Z,83.92
2017-10-02T19:07:23.770Z,83.88
2017-10-02T19:09:52.864Z,84.02
2017-10-02T19:12:21.982Z,83.51
2017-10-02T19:14:50.332Z,83.55
2017-10-02T19:17:19.398Z,83.44
2017-10-02T19:19:47.721Z,84.00
2017-10-02T19:22:16.842Z,84.67
2017-10-02T19:24:45.180Z,84.27
2017-10-02T19:27:13.536Z,84.67
2017-10-02T19:29:41.861Z,84.79
2017-10-02T19:32:11.213Z,84.78
2017-10-02T19:34:39.535Z,84.31
2017-10-02T19:37:08.624Z,84.53
2017-10-02T19:39:36.970Z,84.80
2017-10-02T19:42:06.056Z,85.35
2017-10-02T19:44:34.418Z,85.34
2017-10-02T19:47:02.739Z,84.80
2017-10-02T19:49:31.091Z,84.81
2017-10-02T19:51:59.415Z,85.29
2017-10-02T19:54:28.056Z,85.22
2017-10-02T19:56:56.403Z,85.50
2017-10-02T19:59:24.743Z,85.22
2017-10-02T20:01:53.117Z,84.97
2017-10-02T20:04:21.512Z,84.99
2017-10-02T20:06:50.722Z,85.25
2017-10-02T20:09:19.880Z,85.36
2017-10-02T20:11:48.240Z,85.32
2017-10-02T20:14:16.596Z,85.59
2017-10-02T20:16:44.978Z,85.58
2017-10-02T20:19:14.076Z,85.26
2017-10-02T20:21:43.211Z,85.52
2017-10-02T20:24:11.540Z,85.71
2017-10-02T20:26:41.005Z,86.30
2017-10-02T20:29:09.315Z,86.35
2017-10-02T20:31:37.648Z,86.65
2017-10-02T20:34:06.016Z,86.79
2017-10-02T20:36:34.360Z,87.20
2017-10-02T20:39:03.476Z,87.38
2017-10-02T20:41:32.564Z,87.03
2017-10-02T20:44:01.672Z,86.63
2017-10-02T20:46:30.758Z,87.19
2017-10-02T20:48:59.864Z,86.51
2017-10-02T20:51:28.964Z,86.80
2017-10-02T20:53:57.329Z,87.14
2017-10-02T20:56:26.445Z,87.02
2017-10-02T20:58:54.771Z,87.04
2017-10-02T21:01:23.116Z,87.30
2017-10-02T21:03:51.437Z,87.90
2017-10-02T21:06:19.791Z,88.30
2017-10-02T21:08:48.114Z,88.29
2017-10-02T21:11:17.202Z,88.89
2017-10-02T21:13:45.561Z,88.82
2017-10-02T21:16:13.899Z,89.94
2017-10-02T21:18:43.075Z,89.84
2017-10-02T21:21:12.186Z,90.00
2017-10-02T21:23:40.530Z,90.31
2017-10-02T21:26:08.869Z,90.26
2017-10-02T21:28:37.212Z,90.28
2017-10-02T21:31:06.320Z,89.85
2017-10-02T21:33:34.689Z,89.70
2017-10-02T21:36:03.771Z,89.72
2017-10-02T21:38:32.098Z,89.90
2017-10-02T21:41:00.446Z,88.56
2017-10-02T21:43:29.546Z,88.06
2017-10-02T21:45:58.670Z,88.52
2017-10-02T21:48:27.010Z,89.11
2017-10-02T21:50:56.107Z,89.49
2017-10-02T21:53:25.200Z,89.54
2017-10-02T21:55:54.318Z,90.16
2017-10-02T21:58:22.653Z,90.37
2017-10-02T22:00:51.011Z,90.54
2017-10-02T22:03:19.353Z,90.54
2017-10-02T22:05:48.437Z,90.68
2017-10-02T22:08:17.600Z,90.32
2017-10-02T22:10:45.930Z,89.99
2017-10-02T22:13:14.280Z,90.08
2017-10-02T22:15:42.599Z,89.82
2017-10-02T22:18:10.935Z,90.15
2017-10-02T22:20:39.300Z,90.18
2017-10-02T22:23:07.635Z,90.86
2017-10-02T22:25:35.964Z,91.26
2017-10-02T22:28:04.322Z,91.23
2017-10-02T22:30:32.644Z,91.21
2017-10-02T22:33:01.730Z,91.51
2017-10-02T22:35:30.072Z,91.25
2017-10-02T22:37:58.378Z,90.94
2017-10-02T22:40:26.718Z,90.83
2017-10-02T22:42:55.050Z,90.12
2017-10-02T22:45:23.402Z,90.51
2017-10-02T22:47:51.736Z,90.15
2017-10-02T22:50:20.069Z,90.23
2017-10-02T22:52:48.410Z,90.78
2017-10-02T22:55:16.752Z,90.59
2017-10-02T22:57:45.867Z,90.63
2017-10-02T23:00:14.960Z,91.06
2017-10-02T23:02:43.326Z,91.38
2017-10-02T23:05:12.434Z,90.85
2017-10-02T23:07:41.585Z,91.17
2017-10-02T23:10:09.911Z,92.03
2017-10-02T23:12:39.064Z,91.76
2017-10-02T23:15:07.411Z,91.50
2017-10-02T23:17:35.733Z,91.66
2017-10-02T23:20:04.076Z,91.18
2017-10-02T23:22:32.401Z,90.17
2017-10-02T23:25:00.748Z,90.26
2017-10-02T23:27:29.073Z,91.21
2017-10-02T23:29:58.184Z,90.98
2017-10-02T23:32:27.270Z,90.83
2017-10-02T23:34:56.651Z,90.86
2017-10-02T23:37:24.976Z,90.31
2017-10-02T23:39:53.290Z,90.34
2017-10-02T23:42:21.618Z,90.04
2017-10-02T23:44:50.709Z,89.39
2017-10-02T23:47:19.824Z,89.81
2017-10-02T23:49:48.898Z,88.25
2017-10-02T23:52:18.004Z,89.02
2017-10-02T23:54:47.104Z,89.64
2017-10-02T23:57:16.208Z,90.24
2017-10-02T23:59:44.557Z,91.41
